IS29 weather

OSF Center For Health - Streator Heliport
Streator, Illinois, United States

Public forecast

Using degrees Fahrenheit for public forecast. Weather courtesy of forecast.io.

METAR (pilot weather report)

Closest report is Pontiac Municipal Airport, 14.8 nm (27.5 km) SE. Retrieved 2019/08/19 15:35 UTC (5 minutes ago):

KPNT 191535Z AUTO 00000KT 10SM CLR 29/22 A3003 RMK AO2 T02870215

TAF (pilot weather forecast)

Closest forecast is Central Illinois Regional Airport at Bloomington-Normal, 38.4 nm (71.1 km) S. Retrieved 2019/08/19 12:22 UTC (3 hours ago):

TAF KBMI 191120Z 1912/2012 20003KT 1SM BR SCT030 TEMPO 1912/1913 1/2SM FG VV002 FM191500 VRB04KT P6SM BKN045 FM191800 VRB06KT P6SM VCSH BKN050 FM200000 VRB04KT P6SM SCT250